PWSweather.com
Personal Weather Stations
Station Observations
THAIWX
Pa Daet, Chiang MaiTH 50100

Pa DaetChiang MaiTH 50100

Lat: 18.766158, Lon: 98.97553

Elevation: 1007

Station Type: LaCrosse WS2315 (modified)

http://www.ThaiWx.yolasite.com/

High Low Average
Temperature 94.3°F34.6°F 73.2°F22.9°F 81.8°F27.7°F
Dew Point 77.1°F25.1°F 71.1°F21.7°F 73.7°F23.2°F
Winds 3.6 mph -5.8 mph - Calm Calm 0.3 mph 0.5 mph
Wind Gusts 4.3 mph6.9 mph -- 0.7 mph1.1 mph
Humidity 93% 55% 78%
Pressure 29.95 in1014.20 in 29.75 in1007.50 in -
Precipitation 0.00 in0.00 in - -
Hour Temp Dew Point Humidity Winds Wind Gusts Pressure Precip Precip Rate Daily Precip Total
12:05 AM 74.1°F23.4°C 72.0°F22.2°C 93% Calm Calm -- 29.90 in1012.5 mb 0.00 in0.0 mm 0.00 in0.0 mm 0.00 in0.0 mm
12:09 AM 73.9°F23.3°C 71.8°F22.1°C 93% Calm Calm -- 29.90 in1012.5 mb 0.00 in0.0 mm 0.00 in0.0 mm 0.00 in0.0 mm
12:15 AM 73.9°F23.3°C 71.8°F22.1°C 93% Calm Calm -- 29.90 in1012.5 mb 0.00 in0.0 mm 0.00 in0.0 mm 0.00 in0.0 mm
12:20 AM 73.9°F23.3°C 71.8°F22.1°C 93% Calm Calm -- 29.89 in1012.2 mb 0.00 in0.0 mm 0.00 in0.0 mm 0.00 in0.0 mm
12:26 AM 73.9°F23.3°C 71.8°F22.1°C 93% Calm Calm -- 29.89 in1012.2 mb 0.00 in0.0 mm 0.00 in0.0 mm 0.00 in0.0 mm
12:30 AM 73.9°F23.3°C 71.8°F22.1°C 93% Calm Calm -- 29.89 in1012.2 mb 0.00 in0.0 mm 0.00 in0.0 mm 0.00 in0.0 mm
12:37 AM 73.9°F23.3°C 71.8°F22.1°C 93% Calm Calm -- 29.89 in1012.2 mb 0.00 in0.0 mm 0.00 in0.0 mm 0.00 in0.0 mm
12:41 AM 73.9°F23.3°C 71.8°F22.1°C 93% Calm Calm -- 29.88 in1011.9 mb 0.00 in0.0 mm 0.00 in0.0 mm 0.00 in0.0 mm
12:48 AM 74.1°F23.4°C 72.0°F22.2°C 93% Calm Calm -- 29.88 in1011.9 mb 0.00 in0.0 mm 0.00 in0.0 mm 0.00 in0.0 mm
12:52 AM 74.1°F23.4°C 72.0°F22.2°C 93% Calm Calm -- 29.88 in1011.9 mb 0.00 in0.0 mm 0.00 in0.0 mm 0.00 in0.0 mm
12:56 AM 74.1°F23.4°C 72.0°F22.2°C 93% Calm Calm -- 29.87 in1011.5 mb 0.00 in0.0 mm 0.00 in0.0 mm 0.00 in0.0 mm
01:03 AM 74.1°F23.4°C 72.0°F22.2°C 93% Calm Calm -- 29.87 in1011.5 mb 0.00 in0.0 mm 0.00 in0.0 mm 0.00 in0.0 mm
01:07 AM 74.1°F23.4°C 72.0°F22.2°C 93% 1.1 mph 1.8 kmh 1.1 mph1.8 kmh 29.87 in1011.5 mb 0.00 in0.0 mm 0.00 in0.0 mm 0.00 in0.0 mm
01:13 AM 74.3°F23.5°C 72.2°F22.3°C 93% Calm Calm 1.1 mph1.8 kmh 29.87 in1011.5 mb 0.00 in0.0 mm 0.00 in0.0 mm 0.00 in0.0 mm
01:18 AM 74.3°F23.5°C 72.2°F22.3°C 93% Calm Calm -- 29.86 in1011.2 mb 0.00 in0.0 mm 0.00 in0.0 mm 0.00 in0.0 mm
01:22 AM 74.3°F23.5°C 72.2°F22.3°C 93% 1.6 mph NE2.6 kmh NE 1.6 mph2.6 kmh 29.86 in1011.2 mb 0.00 in0.0 mm 0.00 in0.0 mm 0.00 in0.0 mm
01:28 AM 74.3°F23.5°C 72.2°F22.3°C 93% Calm Calm 2.5 mph4.0 kmh 29.86 in1011.2 mb 0.00 in0.0 mm 0.00 in0.0 mm 0.00 in0.0 mm
01:33 AM 74.5°F23.6°C 72.3°F22.4°C 93% Calm Calm 2.5 mph4.0 kmh 29.86 in1011.2 mb 0.00 in0.0 mm 0.00 in0.0 mm 0.00 in0.0 mm
01:37 AM 74.5°F23.6°C 72.3°F22.4°C 93% Calm Calm 1.1 mph1.8 kmh 29.86 in1011.2 mb 0.00 in0.0 mm 0.00 in0.0 mm 0.00 in0.0 mm
01:43 AM 74.5°F23.6°C 72.3°F22.4°C 93% 3.6 mph NNE5.8 kmh NNE 3.6 mph5.8 kmh 29.86 in1011.2 mb 0.00 in0.0 mm 0.00 in0.0 mm 0.00 in0.0 mm
01:48 AM 74.5°F23.6°C 72.3°F22.4°C 93% Calm Calm 3.6 mph5.8 kmh 29.86 in1011.2 mb 0.00 in0.0 mm 0.00 in0.0 mm 0.00 in0.0 mm
01:54 AM 74.5°F23.6°C 72.3°F22.4°C 93% Calm Calm -- 29.86 in1011.2 mb 0.00 in0.0 mm 0.00 in0.0 mm 0.00 in0.0 mm
01:58 AM 74.5°F23.6°C 72.3°F22.4°C 93% Calm Calm -- 29.86 in1011.2 mb 0.00 in0.0 mm 0.00 in0.0 mm 0.00 in0.0 mm
02:02 AM 74.5°F23.6°C 72.3°F22.4°C 93% Calm Calm -- 29.86 in1011.2 mb 0.00 in0.0 mm 0.00 in0.0 mm 0.00 in0.0 mm
02:09 AM 74.5°F23.6°C 72.3°F22.4°C 93% Calm Calm 1.1 mph1.8 kmh 29.86 in1011.2 mb 0.00 in0.0 mm 0.00 in0.0 mm 0.00 in0.0 mm
02:13 AM 74.5°F23.6°C 72.3°F22.4°C 93% 1.3 mph ENE2.1 kmh ENE 1.3 mph2.1 kmh 29.86 in1011.2 mb 0.00 in0.0 mm 0.00 in0.0 mm 0.00 in0.0 mm
02:18 AM 74.5°F23.6°C 72.3°F22.4°C 93% Calm Calm 1.3 mph2.1 kmh 29.85 in1010.8 mb 0.00 in0.0 mm 0.00 in0.0 mm 0.00 in0.0 mm
02:24 AM 74.5°F23.6°C 72.3°F22.4°C 93% 1.6 mph 2.6 kmh 1.6 mph2.6 kmh 29.85 in1010.8 mb 0.00 in0.0 mm 0.00 in0.0 mm 0.00 in0.0 mm
02:28 AM 74.5°F23.6°C 72.3°F22.4°C 93% 2.9 mph 4.7 kmh 2.9 mph4.7 kmh 29.85 in1010.8 mb 0.00 in0.0 mm 0.00 in0.0 mm 0.00 in0.0 mm
02:32 AM 74.5°F23.6°C 72.3°F22.4°C 93% Calm Calm 2.9 mph4.7 kmh 29.85 in1010.8 mb 0.00 in0.0 mm 0.00 in0.0 mm 0.00 in0.0 mm
02:39 AM 74.5°F23.6°C 72.3°F22.4°C 93% 2.0 mph 3.2 kmh 2.9 mph4.7 kmh 29.85 in1010.8 mb 0.00 in0.0 mm 0.00 in0.0 mm 0.00 in0.0 mm
02:43 AM 74.5°F23.6°C 72.3°F22.4°C 93% Calm Calm 2.0 mph3.2 kmh 29.85 in1010.8 mb 0.00 in0.0 mm 0.00 in0.0 mm 0.00 in0.0 mm
02:50 AM 74.5°F23.6°C 72.3°F22.4°C 93% 2.2 mph NNE3.5 kmh NNE 3.8 mph6.1 kmh 29.85 in1010.8 mb 0.00 in0.0 mm 0.00 in0.0 mm 0.00 in0.0 mm
02:54 AM 74.5°F23.6°C 72.3°F22.4°C 93% Calm Calm 3.8 mph6.1 kmh 29.85 in1010.8 mb 0.00 in0.0 mm 0.00 in0.0 mm 0.00 in0.0 mm
02:58 AM 74.5°F23.6°C 72.3°F22.4°C 93% Calm Calm 2.2 mph3.5 kmh 29.85 in1010.8 mb 0.00 in0.0 mm 0.00 in0.0 mm 0.00 in0.0 mm
03:05 AM 74.5°F23.6°C 72.3°F22.4°C 93% Calm Calm -- 29.85 in1010.8 mb 0.00 in0.0 mm 0.00 in0.0 mm 0.00 in0.0 mm
03:09 AM 74.7°F23.7°C 72.5°F22.5°C 93% 1.6 mph ENE2.6 kmh ENE 1.6 mph2.6 kmh 29.85 in1010.8 mb 0.00 in0.0 mm 0.00 in0.0 mm 0.00 in0.0 mm
03:15 AM 74.7°F23.7°C 72.5°F22.5°C 93% 1.1 mph ENE1.8 kmh ENE 2.9 mph4.7 kmh 29.85 in1010.8 mb 0.00 in0.0 mm 0.00 in0.0 mm 0.00 in0.0 mm
03:20 AM 74.7°F23.7°C 72.5°F22.5°C 93% Calm Calm 2.9 mph4.7 kmh 29.85 in1010.8 mb 0.00 in0.0 mm 0.00 in0.0 mm 0.00 in0.0 mm
03:24 AM 74.7°F23.7°C 72.2°F22.3°C 92% Calm Calm 1.1 mph1.8 kmh 29.85 in1010.8 mb 0.00 in0.0 mm 0.00 in0.0 mm 0.00 in0.0 mm
03:30 AM 74.8°F23.8°C 72.7°F22.6°C 93% Calm Calm -- 29.85 in1010.8 mb 0.00 in0.0 mm 0.00 in0.0 mm 0.00 in0.0 mm
03:35 AM 74.8°F23.8°C 72.4°F22.4°C 92% 1.3 mph NE2.1 kmh NE 1.3 mph2.1 kmh 29.84 in1010.5 mb 0.00 in0.0 mm 0.00 in0.0 mm 0.00 in0.0 mm
03:41 AM 74.7°F23.7°C 72.2°F22.3°C 92% Calm Calm 1.3 mph2.1 kmh 29.84 in1010.5 mb 0.00 in0.0 mm 0.00 in0.0 mm 0.00 in0.0 mm
03:45 AM 74.8°F23.8°C 72.4°F22.4°C 92% Calm Calm -- 29.84 in1010.5 mb 0.00 in0.0 mm 0.00 in0.0 mm 0.00 in0.0 mm
03:50 AM 74.7°F23.7°C 72.2°F22.3°C 92% Calm Calm -- 29.84 in1010.5 mb 0.00 in0.0 mm 0.00 in0.0 mm 0.00 in0.0 mm
03:56 AM 74.7°F23.7°C 72.2°F22.3°C 92% Calm Calm -- 29.84 in1010.5 mb 0.00 in0.0 mm 0.00 in0.0 mm 0.00 in0.0 mm
04:02 AM 74.7°F23.7°C 72.2°F22.3°C 92% Calm Calm -- 29.84 in1010.5 mb 0.00 in0.0 mm 0.00 in0.0 mm 0.00 in0.0 mm
04:07 AM 74.7°F23.7°C 72.2°F22.3°C 92% Calm Calm -- 29.85 in1010.8 mb 0.00 in0.0 mm 0.00 in0.0 mm 0.00 in0.0 mm
04:11 AM 74.5°F23.6°C 72.0°F22.2°C 92% Calm Calm -- 29.85 in1010.8 mb 0.00 in0.0 mm 0.00 in0.0 mm 0.00 in0.0 mm
04:17 AM 74.7°F23.7°C 72.0°F22.2°C 92% 0.7 mph NNE1.1 kmh NNE 0.7 mph1.1 kmh 29.85 in1010.8 mb 0.00 in0.0 mm 0.00 in0.0 mm 0.00 in0.0 mm
04:22 AM 74.5°F23.6°C 72.2°F22.3°C 92% Calm Calm 0.7 mph1.1 kmh 29.85 in1010.8 mb 0.00 in0.0 mm 0.00 in0.0 mm 0.00 in0.0 mm
04:26 AM 74.5°F23.6°C 72.0°F22.2°C 92% Calm Calm 0.7 mph1.1 kmh 29.86 in1011.2 mb 0.00 in0.0 mm 0.00 in0.0 mm 0.00 in0.0 mm
04:32 AM 74.5°F23.6°C 72.0°F22.2°C 92% Calm Calm -- 29.86 in1011.2 mb 0.00 in0.0 mm 0.00 in0.0 mm 0.00 in0.0 mm
04:37 AM 74.5°F23.6°C 72.0°F22.2°C 92% Calm Calm -- 29.86 in1011.2 mb 0.00 in0.0 mm 0.00 in0.0 mm 0.00 in0.0 mm
04:43 AM 74.3°F23.5°C 71.9°F22.2°C 92% Calm Calm -- 29.86 in1011.2 mb 0.00 in0.0 mm 0.00 in0.0 mm 0.00 in0.0 mm
04:47 AM 74.3°F23.5°C 71.9°F22.2°C 92% Calm Calm -- 29.86 in1011.2 mb 0.00 in0.0 mm 0.00 in0.0 mm 0.00 in0.0 mm
04:52 AM 74.1°F23.4°C 71.7°F22.1°C 92% Calm Calm -- 29.86 in1011.2 mb 0.00 in0.0 mm 0.00 in0.0 mm 0.00 in0.0 mm
04:58 AM 73.9°F23.3°C 71.5°F21.9°C 92% Calm Calm -- 29.86 in1011.2 mb 0.00 in0.0 mm 0.00 in0.0 mm 0.00 in0.0 mm
05:02 AM 73.9°F23.3°C 71.5°F21.9°C 92% Calm Calm -- 29.86 in1011.2 mb 0.00 in0.0 mm 0.00 in0.0 mm 0.00 in0.0 mm
05:09 AM 73.8°F23.2°C 71.3°F21.8°C 92% Calm Calm -- 29.86 in1011.2 mb 0.00 in0.0 mm 0.00 in0.0 mm 0.00 in0.0 mm
05:13 AM 73.8°F23.2°C 71.3°F21.8°C 92% Calm Calm -- 29.86 in1011.2 mb 0.00 in0.0 mm 0.00 in0.0 mm 0.00 in0.0 mm
05:17 AM 73.6°F23.1°C 71.1°F21.7°C 92% Calm Calm -- 29.87 in1011.5 mb 0.00 in0.0 mm 0.00 in0.0 mm 0.00 in0.0 mm
05:24 AM 73.6°F23.1°C 71.1°F21.7°C 92% Calm Calm -- 29.87 in1011.5 mb 0.00 in0.0 mm 0.00 in0.0 mm 0.00 in0.0 mm
05:30 AM 73.6°F23.1°C 71.4°F21.9°C 93% Calm Calm -- 29.87 in1011.5 mb 0.00 in0.0 mm 0.00 in0.0 mm 0.00 in0.0 mm
05:35 AM 73.6°F23.1°C 71.4°F21.9°C 93% Calm Calm -- 29.87 in1011.5 mb 0.00 in0.0 mm 0.00 in0.0 mm 0.00 in0.0 mm
05:39 AM 73.6°F23.1°C 71.4°F21.9°C 93% Calm Calm -- 29.88 in1011.9 mb 0.00 in0.0 mm 0.00 in0.0 mm 0.00 in0.0 mm
05:45 AM 73.4°F23.0°C 71.3°F21.8°C 93% Calm Calm -- 29.88 in1011.9 mb 0.00 in0.0 mm 0.00 in0.0 mm 0.00 in0.0 mm
05:50 AM 73.4°F23.0°C 71.3°F21.8°C 93% Calm Calm -- 29.88 in1011.9 mb 0.00 in0.0 mm 0.00 in0.0 mm 0.00 in0.0 mm
05:56 AM 73.4°F23.0°C 71.3°F21.8°C 93% Calm Calm -- 29.87 in1011.5 mb 0.00 in0.0 mm 0.00 in0.0 mm 0.00 in0.0 mm
06:00 AM 73.2°F22.9°C 71.1°F21.7°C 93% Calm Calm -- 29.88 in1011.9 mb 0.00 in0.0 mm 0.00 in0.0 mm 0.00 in0.0 mm
06:05 AM 73.2°F22.9°C 71.1°F21.7°C 93% Calm Calm -- 29.88 in1011.9 mb 0.00 in0.0 mm 0.00 in0.0 mm 0.00 in0.0 mm
06:11 AM 73.2°F22.9°C 71.1°F21.7°C 93% Calm Calm -- 29.89 in1012.2 mb 0.00 in0.0 mm 0.00 in0.0 mm 0.00 in0.0 mm
06:15 AM 73.2°F22.9°C 71.1°F21.7°C 93% Calm Calm -- 29.88 in1011.9 mb 0.00 in0.0 mm 0.00 in0.0 mm 0.00 in0.0 mm
06:22 AM 73.2°F22.9°C 71.1°F21.7°C 93% Calm Calm -- 29.89 in1012.2 mb 0.00 in0.0 mm 0.00 in0.0 mm 0.00 in0.0 mm
06:28 AM 73.2°F22.9°C 71.1°F21.7°C 93% Calm Calm -- 29.89 in1012.2 mb 0.00 in0.0 mm 0.00 in0.0 mm 0.00 in0.0 mm
06:32 AM 73.2°F22.9°C 71.1°F21.7°C 93% Calm Calm -- 29.89 in1012.2 mb 0.00 in0.0 mm 0.00 in0.0 mm 0.00 in0.0 mm
06:37 AM 73.2°F22.9°C 71.1°F21.7°C 93% Calm Calm -- 29.89 in1012.2 mb 0.00 in0.0 mm 0.00 in0.0 mm 0.00 in0.0 mm
06:43 AM 73.4°F23.0°C 71.3°F21.8°C 93% Calm Calm -- 29.89 in1012.2 mb 0.00 in0.0 mm 0.00 in0.0 mm 0.00 in0.0 mm
06:47 AM 73.4°F23.0°C 71.3°F21.8°C 93% Calm Calm -- 29.89 in1012.2 mb 0.00 in0.0 mm 0.00 in0.0 mm 0.00 in0.0 mm
06:54 AM 73.6°F23.1°C 71.4°F21.9°C 93% Calm Calm -- 29.90 in1012.5 mb 0.00 in0.0 mm 0.00 in0.0 mm 0.00 in0.0 mm
07:00 AM 73.6°F23.1°C 71.4°F21.9°C 93% Calm Calm -- 29.90 in1012.5 mb 0.00 in0.0 mm 0.00 in0.0 mm 0.00 in0.0 mm
07:05 AM 73.6°F23.1°C 71.4°F21.9°C 93% Calm Calm -- 29.89 in1012.2 mb 0.00 in0.0 mm 0.00 in0.0 mm 0.00 in0.0 mm
07:09 AM 73.6°F23.1°C 71.4°F21.9°C 93% Calm Calm -- 29.90 in1012.5 mb 0.00 in0.0 mm 0.00 in0.0 mm 0.00 in0.0 mm
07:15 AM 73.6°F23.1°C 71.4°F21.9°C 93% Calm Calm -- 29.90 in1012.5 mb 0.00 in0.0 mm 0.00 in0.0 mm 0.00 in0.0 mm
07:20 AM 73.8°F23.2°C 71.6°F22.0°C 93% Calm Calm -- 29.90 in1012.5 mb 0.00 in0.0 mm 0.00 in0.0 mm 0.00 in0.0 mm
07:24 AM 73.8°F23.2°C 71.6°F22.0°C 93% Calm Calm -- 29.90 in1012.5 mb 0.00 in0.0 mm 0.00 in0.0 mm 0.00 in0.0 mm
07:30 AM 73.9°F23.3°C 71.8°F22.1°C 93% Calm Calm -- 29.90 in1012.5 mb 0.00 in0.0 mm 0.00 in0.0 mm 0.00 in0.0 mm
07:35 AM 74.1°F23.4°C 72.0°F22.2°C 93% Calm Calm -- 29.90 in1012.5 mb 0.00 in0.0 mm 0.00 in0.0 mm 0.00 in0.0 mm
07:39 AM 74.1°F23.4°C 72.0°F22.2°C 93% Calm Calm -- 29.91 in1012.9 mb 0.00 in0.0 mm 0.00 in0.0 mm 0.00 in0.0 mm
07:45 AM 74.3°F23.5°C 72.2°F22.3°C 93% Calm Calm -- 29.91 in1012.9 mb 0.00 in0.0 mm 0.00 in0.0 mm 0.00 in0.0 mm
07:50 AM 74.5°F23.6°C 72.3°F22.4°C 93% Calm Calm -- 29.91 in1012.9 mb 0.00 in0.0 mm 0.00 in0.0 mm 0.00 in0.0 mm
07:54 AM 74.5°F23.6°C 72.0°F22.2°C 92% Calm Calm -- 29.91 in1012.9 mb 0.00 in0.0 mm 0.00 in0.0 mm 0.00 in0.0 mm
08:00 AM 74.7°F23.7°C 72.2°F22.3°C 92% Calm Calm -- 29.92 in1013.2 mb 0.00 in0.0 mm 0.00 in0.0 mm 0.00 in0.0 mm
08:05 AM 74.8°F23.8°C 72.4°F22.4°C 92% Calm Calm -- 29.92 in1013.2 mb 0.00 in0.0 mm 0.00 in0.0 mm 0.00 in0.0 mm
08:09 AM 75.0°F23.9°C 72.6°F22.6°C 92% Calm Calm -- 29.91 in1012.9 mb 0.00 in0.0 mm 0.00 in0.0 mm 0.00 in0.0 mm
08:15 AM 75.0°F23.9°C 72.6°F22.6°C 92% Calm Calm -- 29.92 in1013.2 mb 0.00 in0.0 mm 0.00 in0.0 mm 0.00 in0.0 mm
08:20 AM 75.4°F24.1°C 72.9°F22.7°C 92% Calm Calm -- 29.93 in1013.5 mb 0.00 in0.0 mm 0.00 in0.0 mm 0.00 in0.0 mm
08:26 AM 75.4°F24.1°C 72.6°F22.6°C 91% Calm Calm -- 29.92 in1013.2 mb 0.00 in0.0 mm 0.00 in0.0 mm 0.00 in0.0 mm
08:30 AM 75.6°F24.2°C 72.8°F22.7°C 91% Calm Calm -- 29.92 in1013.2 mb 0.00 in0.0 mm 0.00 in0.0 mm 0.00 in0.0 mm
08:37 AM 75.7°F24.3°C 73.0°F22.8°C 91% 3.1 mph SE5.0 kmh SE 3.1 mph5.0 kmh 29.93 in1013.5 mb 0.00 in0.0 mm 0.00 in0.0 mm 0.00 in0.0 mm
08:41 AM 75.9°F24.4°C 72.9°F22.7°C 90% Calm Calm 3.1 mph5.0 kmh 29.93 in1013.5 mb 0.00 in0.0 mm 0.00 in0.0 mm 0.00 in0.0 mm
08:45 AM 75.9°F24.4°C 72.9°F22.7°C 90% Calm Calm 3.1 mph5.0 kmh 29.93 in1013.5 mb 0.00 in0.0 mm 0.00 in0.0 mm 0.00 in0.0 mm
08:52 AM 76.1°F24.5°C 73.0°F22.8°C 90% Calm Calm 2.5 mph4.0 kmh 29.93 in1013.5 mb 0.00 in0.0 mm 0.00 in0.0 mm 0.00 in0.0 mm
08:56 AM 76.1°F24.5°C 73.0°F22.8°C 90% Calm Calm -- 29.94 in1013.9 mb 0.00 in0.0 mm 0.00 in0.0 mm 0.00 in0.0 mm
09:00 AM 76.3°F24.6°C 73.2°F22.9°C 90% Calm Calm -- 29.94 in1013.9 mb 0.00 in0.0 mm 0.00 in0.0 mm 0.00 in0.0 mm
09:07 AM 76.5°F24.7°C 73.4°F23.0°C 90% Calm Calm -- 29.94 in1013.9 mb 0.00 in0.0 mm 0.00 in0.0 mm 0.00 in0.0 mm
09:11 AM 76.6°F24.8°C 73.6°F23.1°C 90% Calm Calm -- 29.94 in1013.9 mb 0.00 in0.0 mm 0.00 in0.0 mm 0.00 in0.0 mm
09:17 AM 76.6°F24.8°C 73.2°F22.9°C 89% Calm Calm 1.3 mph2.1 kmh 29.94 in1013.9 mb 0.00 in0.0 mm 0.00 in0.0 mm 0.00 in0.0 mm
09:22 AM 76.8°F24.9°C 73.4°F23.0°C 89% 2.2 mph NNE3.5 kmh NNE 2.2 mph3.5 kmh 29.95 in1014.2 mb 0.00 in0.0 mm 0.00 in0.0 mm 0.00 in0.0 mm
09:26 AM 76.8°F24.9°C 73.4°F23.0°C 89% 1.6 mph ESE2.6 kmh ESE 2.2 mph3.5 kmh 29.94 in1013.9 mb 0.00 in0.0 mm 0.00 in0.0 mm 0.00 in0.0 mm
09:32 AM 76.8°F24.9°C 73.4°F23.0°C 89% Calm Calm 1.6 mph2.6 kmh 29.95 in1014.2 mb 0.00 in0.0 mm 0.00 in0.0 mm 0.00 in0.0 mm
09:37 AM 76.8°F24.9°C 73.4°F23.0°C 89% Calm Calm -- 29.94 in1013.9 mb 0.00 in0.0 mm 0.00 in0.0 mm 0.00 in0.0 mm
09:43 AM 77.2°F25.1°C 73.4°F23.0°C 88% 1.3 mph NE2.1 kmh NE 1.3 mph2.1 kmh 29.95 in1014.2 mb 0.00 in0.0 mm 0.00 in0.0 mm 0.00 in0.0 mm
09:47 AM 77.2°F25.1°C 73.4°F23.0°C 88% Calm Calm 1.3 mph2.1 kmh 29.94 in1013.9 mb 0.00 in0.0 mm 0.00 in0.0 mm 0.00 in0.0 mm
09:54 AM 77.4°F25.2°C 73.6°F23.1°C 88% Calm Calm -- 29.94 in1013.9 mb 0.00 in0.0 mm 0.00 in0.0 mm 0.00 in0.0 mm
09:58 AM 77.5°F25.3°C 73.8°F23.2°C 88% Calm Calm -- 29.94 in1013.9 mb 0.00 in0.0 mm 0.00 in0.0 mm 0.00 in0.0 mm
10:05 AM 77.7°F25.4°C 73.6°F23.1°C 87% Calm Calm -- 29.94 in1013.9 mb 0.00 in0.0 mm 0.00 in0.0 mm 0.00 in0.0 mm
10:09 AM 77.9°F25.5°C 73.8°F23.2°C 87% Calm Calm -- 29.94 in1013.9 mb 0.00 in0.0 mm 0.00 in0.0 mm 0.00 in0.0 mm
10:15 AM 78.1°F25.6°C 73.9°F23.3°C 87% Calm Calm -- 29.94 in1013.9 mb 0.00 in0.0 mm 0.00 in0.0 mm 0.00 in0.0 mm
10:20 AM 78.1°F25.6°C 73.9°F23.3°C 87% Calm Calm -- 29.94 in1013.9 mb 0.00 in0.0 mm 0.00 in0.0 mm 0.00 in0.0 mm
10:24 AM 78.4°F25.8°C 74.3°F23.5°C 87% Calm Calm -- 29.94 in1013.9 mb 0.00 in0.0 mm 0.00 in0.0 mm 0.00 in0.0 mm
10:30 AM 78.6°F25.9°C 74.1°F23.4°C 86% Calm Calm -- 29.94 in1013.9 mb 0.00 in0.0 mm 0.00 in0.0 mm 0.00 in0.0 mm
10:37 AM 79.0°F26.1°C 74.5°F23.6°C 86% Calm Calm -- 29.94 in1013.9 mb 0.00 in0.0 mm 0.00 in0.0 mm 0.00 in0.0 mm
10:41 AM 79.3°F26.3°C 74.4°F23.6°C 85% Calm Calm -- 29.93 in1013.5 mb 0.00 in0.0 mm 0.00 in0.0 mm 0.00 in0.0 mm
10:45 AM 79.5°F26.4°C 74.6°F23.7°C 85% Calm Calm 0.9 mph1.4 kmh 29.93 in1013.5 mb 0.00 in0.0 mm 0.00 in0.0 mm 0.00 in0.0 mm
10:52 AM 79.7°F26.5°C 74.4°F23.6°C 84% 1.1 mph NNE1.8 kmh NNE 1.1 mph1.8 kmh 29.94 in1013.9 mb 0.00 in0.0 mm 0.00 in0.0 mm 0.00 in0.0 mm
10:58 AM 80.2°F26.8°C 74.9°F23.8°C 84% 1.8 mph 2.9 kmh 1.8 mph2.9 kmh 29.93 in1013.5 mb 0.00 in0.0 mm 0.00 in0.0 mm 0.00 in0.0 mm
11:02 AM 80.4°F26.9°C 75.1°F23.9°C 84% Calm Calm 1.8 mph2.9 kmh 29.93 in1013.5 mb 0.00 in0.0 mm 0.00 in0.0 mm 0.00 in0.0 mm
11:07 AM 80.8°F27.1°C 75.1°F23.9°C 83% Calm Calm 1.8 mph2.9 kmh 29.93 in1013.5 mb 0.00 in0.0 mm 0.00 in0.0 mm 0.00 in0.0 mm
11:13 AM 81.3°F27.4°C 75.2°F24.0°C 82% Calm Calm -- 29.93 in1013.5 mb 0.00 in0.0 mm 0.00 in0.0 mm 0.00 in0.0 mm
11:20 AM 81.7°F27.6°C 75.4°F24.1°C 81% 1.1 mph NE1.8 kmh NE 1.1 mph1.8 kmh 29.92 in1013.2 mb 0.00 in0.0 mm 0.00 in0.0 mm 0.00 in0.0 mm
11:24 AM 82.2°F27.9°C 75.1°F23.9°C 79% Calm Calm 1.8 mph2.9 kmh 29.91 in1012.9 mb 0.00 in0.0 mm 0.00 in0.0 mm 0.00 in0.0 mm
11:28 AM 82.4°F28.0°C 74.9°F23.8°C 78% 1.6 mph NNW2.6 kmh NNW 1.8 mph2.9 kmh 29.91 in1012.9 mb 0.00 in0.0 mm 0.00 in0.0 mm 0.00 in0.0 mm
11:34 AM 82.9°F28.3°C 75.4°F24.1°C 78% Calm Calm 1.6 mph2.6 kmh 29.91 in1012.9 mb 0.00 in0.0 mm 0.00 in0.0 mm 0.00 in0.0 mm
11:41 AM 83.5°F28.6°C 75.5°F24.2°C 77% 2.2 mph SE3.5 kmh SE 2.2 mph3.5 kmh 29.91 in1012.9 mb 0.00 in0.0 mm 0.00 in0.0 mm 0.00 in0.0 mm
11:45 AM 84.0°F28.9°C 75.6°F24.2°C 76% 1.6 mph NNE2.6 kmh NNE 2.2 mph3.5 kmh 29.91 in1012.9 mb 0.00 in0.0 mm 0.00 in0.0 mm 0.00 in0.0 mm
11:49 AM 84.2°F29.0°C 75.8°F24.3°C 76% 2.2 mph 3.5 kmh 2.2 mph3.5 kmh 29.90 in1012.5 mb 0.00 in0.0 mm 0.00 in0.0 mm 0.00 in0.0 mm
11:56 AM 84.6°F29.2°C 75.7°F24.3°C 75% Calm Calm 2.7 mph4.3 kmh 29.90 in1012.5 mb 0.00 in0.0 mm 0.00 in0.0 mm 0.00 in0.0 mm
12:00 PM 84.7°F29.3°C 75.9°F24.4°C 75% 3.6 mph NNW5.8 kmh NNW 4.3 mph6.9 kmh 29.90 in1012.5 mb 0.00 in0.0 mm 0.00 in0.0 mm 0.00 in0.0 mm
12:04 PM 84.9°F29.4°C 75.3°F24.1°C 73% Calm Calm 4.3 mph6.9 kmh 29.90 in1012.5 mb 0.00 in0.0 mm 0.00 in0.0 mm 0.00 in0.0 mm
12:11 PM 85.1°F29.5°C 75.5°F24.2°C 73% Calm Calm 2.2 mph3.5 kmh 29.89 in1012.2 mb 0.00 in0.0 mm 0.00 in0.0 mm 0.00 in0.0 mm
12:15 PM 85.5°F29.7°C 75.5°F24.2°C 72% Calm Calm 1.1 mph1.8 kmh 29.89 in1012.2 mb 0.00 in0.0 mm 0.00 in0.0 mm 0.00 in0.0 mm
12:22 PM 85.8°F29.9°C 75.4°F24.1°C 70% Calm Calm 1.1 mph1.8 kmh 29.89 in1012.2 mb 0.00 in0.0 mm 0.00 in0.0 mm 0.00 in0.0 mm
12:26 PM 86.2°F30.1°C 75.4°F24.1°C 70% 2.2 mph SSE3.5 kmh SSE 2.2 mph3.5 kmh 29.88 in1011.9 mb 0.00 in0.0 mm 0.00 in0.0 mm 0.00 in0.0 mm
12:30 PM 86.5°F30.3°C 75.5°F24.2°C 69% 0.7 mph SSE1.1 kmh SSE 2.2 mph3.5 kmh 29.88 in1011.9 mb 0.00 in0.0 mm 0.00 in0.0 mm 0.00 in0.0 mm
12:37 PM 87.1°F30.6°C 75.7°F24.3°C 69% Calm Calm 0.7 mph1.1 kmh 29.87 in1011.5 mb 0.00 in0.0 mm 0.00 in0.0 mm 0.00 in0.0 mm
12:41 PM 87.3°F30.7°C 75.9°F24.4°C 69% Calm Calm 0.7 mph1.1 kmh 29.87 in1011.5 mb 0.00 in0.0 mm 0.00 in0.0 mm 0.00 in0.0 mm
12:47 PM 87.8°F31.0°C 75.5°F24.2°C 67% 2.5 mph ENE4.0 kmh ENE 2.5 mph4.0 kmh 29.87 in1011.5 mb 0.00 in0.0 mm 0.00 in0.0 mm 0.00 in0.0 mm
12:52 PM 88.2°F31.2°C 75.8°F24.3°C 67% Calm Calm 2.5 mph4.0 kmh 29.86 in1011.2 mb 0.00 in0.0 mm 0.00 in0.0 mm 0.00 in0.0 mm
12:56 PM 88.5°F31.4°C 76.0°F24.4°C 67% Calm Calm 2.5 mph4.0 kmh 29.86 in1011.2 mb 0.00 in0.0 mm 0.00 in0.0 mm 0.00 in0.0 mm
01:02 PM 88.9°F31.6°C 76.3°F24.6°C 66% Calm Calm -- 29.86 in1011.2 mb 0.00 in0.0 mm 0.00 in0.0 mm 0.00 in0.0 mm
01:07 PM 89.2°F31.8°C 75.9°F24.4°C 65% 2.5 mph SSW4.0 kmh SSW 2.5 mph4.0 kmh 29.85 in1010.8 mb 0.00 in0.0 mm 0.00 in0.0 mm 0.00 in0.0 mm
01:13 PM 89.6°F32.0°C 76.1°F24.5°C 66% Calm Calm 2.5 mph4.0 kmh 29.85 in1010.8 mb 0.00 in0.0 mm 0.00 in0.0 mm 0.00 in0.0 mm
01:17 PM 89.8°F32.1°C 76.4°F24.7°C 65% Calm Calm 2.7 mph4.3 kmh 29.85 in1010.8 mb 0.00 in0.0 mm 0.00 in0.0 mm 0.00 in0.0 mm
01:22 PM 90.0°F32.2°C 76.1°F24.5°C 64% Calm Calm 2.7 mph4.3 kmh 29.84 in1010.5 mb 0.00 in0.0 mm 0.00 in0.0 mm 0.00 in0.0 mm
01:28 PM 90.1°F32.3°C 75.8°F24.3°C 63% Calm Calm 2.5 mph4.0 kmh 29.83 in1010.2 mb 0.00 in0.0 mm 0.00 in0.0 mm 0.00 in0.0 mm
01:34 PM 90.3°F32.4°C 76.0°F24.4°C 63% Calm Calm 2.5 mph4.0 kmh 29.83 in1010.2 mb 0.00 in0.0 mm 0.00 in0.0 mm 0.00 in0.0 mm
01:39 PM 90.7°F32.6°C 76.0°F24.4°C 63% Calm Calm 2.0 mph3.2 kmh 29.83 in1010.2 mb 0.00 in0.0 mm 0.00 in0.0 mm 0.00 in0.0 mm
01:45 PM 91.0°F32.8°C 76.2°F24.6°C 62% Calm Calm -- 29.83 in1010.2 mb 0.00 in0.0 mm 0.00 in0.0 mm 0.00 in0.0 mm
01:49 PM 91.0°F32.8°C 76.2°F24.6°C 62% 2.7 mph NNE4.3 kmh NNE 2.7 mph4.3 kmh 29.82 in1009.8 mb 0.00 in0.0 mm 0.00 in0.0 mm 0.00 in0.0 mm
01:54 PM 91.4°F33.0°C 76.5°F24.7°C 62% 1.8 mph NE2.9 kmh NE 2.7 mph4.3 kmh 29.83 in1010.2 mb 0.00 in0.0 mm 0.00 in0.0 mm 0.00 in0.0 mm
02:00 PM 91.6°F33.1°C 76.2°F24.6°C 61% 2.5 mph E4.0 kmh E 2.5 mph4.0 kmh 29.82 in1009.8 mb 0.00 in0.0 mm 0.00 in0.0 mm 0.00 in0.0 mm
02:04 PM 91.9°F33.3°C 76.9°F24.9°C 61% Calm Calm 2.5 mph4.0 kmh 29.81 in1009.5 mb 0.00 in0.0 mm 0.00 in0.0 mm 0.00 in0.0 mm
02:09 PM 92.3°F33.5°C 76.5°F24.7°C 60% Calm Calm 2.5 mph4.0 kmh 29.80 in1009.1 mb 0.00 in0.0 mm 0.00 in0.0 mm 0.00 in0.0 mm
02:15 PM 92.3°F33.5°C 75.9°F24.4°C 59% Calm Calm -- 29.79 in1008.8 mb 0.00 in0.0 mm 0.00 in0.0 mm 0.00 in0.0 mm
02:19 PM 92.3°F33.5°C 75.9°F24.4°C 59% Calm Calm -- 29.79 in1008.8 mb 0.00 in0.0 mm 0.00 in0.0 mm 0.00 in0.0 mm
02:26 PM 92.3°F33.5°C 75.9°F24.4°C 59% 3.1 mph 5.0 kmh 3.1 mph5.0 kmh 29.79 in1008.8 mb 0.00 in0.0 mm 0.00 in0.0 mm 0.00 in0.0 mm
02:30 PM 92.5°F33.6°C 75.9°F24.4°C 59% 0.9 mph NNE1.4 kmh NNE 3.1 mph5.0 kmh 29.79 in1008.8 mb 0.00 in0.0 mm 0.00 in0.0 mm 0.00 in0.0 mm
02:34 PM 92.5°F33.6°C 76.1°F24.5°C 58% 0.9 mph SSW1.4 kmh SSW 3.1 mph5.0 kmh 29.79 in1008.8 mb 0.00 in0.0 mm 0.00 in0.0 mm 0.00 in0.0 mm
02:41 PM 92.7°F33.7°C 75.7°F24.3°C 58% Calm Calm 0.9 mph1.4 kmh 29.79 in1008.8 mb 0.00 in0.0 mm 0.00 in0.0 mm 0.00 in0.0 mm
02:45 PM 92.8°F33.8°C 75.9°F24.4°C 58% Calm Calm -- 29.79 in1008.8 mb 0.00 in0.0 mm 0.00 in0.0 mm 0.00 in0.0 mm
02:49 PM 93.0°F33.9°C 76.1°F24.5°C 58% 3.1 mph SE5.0 kmh SE 3.1 mph5.0 kmh 29.78 in1008.5 mb 0.00 in0.0 mm 0.00 in0.0 mm 0.00 in0.0 mm
02:56 PM 93.2°F34.0°C 76.2°F24.6°C 57% Calm Calm 3.6 mph5.8 kmh 29.77 in1008.1 mb 0.00 in0.0 mm 0.00 in0.0 mm 0.00 in0.0 mm
03:00 PM 93.4°F34.1°C 76.4°F24.7°C 58% Calm Calm 3.6 mph5.8 kmh 29.77 in1008.1 mb 0.00 in0.0 mm 0.00 in0.0 mm 0.00 in0.0 mm
03:04 PM 93.6°F34.2°C 76.0°F24.4°C 57% Calm Calm -- 29.77 in1008.1 mb 0.00 in0.0 mm 0.00 in0.0 mm 0.00 in0.0 mm
03:11 PM 93.7°F34.3°C 75.6°F24.2°C 56% Calm Calm -- 29.77 in1008.1 mb 0.00 in0.0 mm 0.00 in0.0 mm 0.00 in0.0 mm
03:15 PM 93.6°F34.2°C 76.0°F24.4°C 57% Calm Calm -- 29.77 in1008.1 mb 0.00 in0.0 mm 0.00 in0.0 mm 0.00 in0.0 mm
03:21 PM 93.4°F34.1°C 75.8°F24.3°C 57% Calm Calm 1.6 mph2.6 kmh 29.77 in1008.1 mb 0.00 in0.0 mm 0.00 in0.0 mm 0.00 in0.0 mm
03:26 PM 93.6°F34.2°C 76.0°F24.4°C 57% 2.0 mph 3.2 kmh 2.0 mph3.2 kmh 29.77 in1008.1 mb 0.00 in0.0 mm 0.00 in0.0 mm 0.00 in0.0 mm
03:30 PM 93.7°F34.3°C 76.2°F24.6°C 57% Calm Calm 2.0 mph3.2 kmh 29.77 in1008.1 mb 0.00 in0.0 mm 0.00 in0.0 mm 0.00 in0.0 mm
03:36 PM 93.9°F34.4°C 76.4°F24.7°C 57% Calm Calm -- 29.77 in1008.1 mb 0.00 in0.0 mm 0.00 in0.0 mm 0.00 in0.0 mm
03:43 PM 94.3°F34.6°C 76.7°F24.8°C 57% Calm Calm -- 29.77 in1008.1 mb 0.00 in0.0 mm 0.00 in0.0 mm 0.00 in0.0 mm
03:49 PM 94.1°F34.5°C 77.1°F25.1°C 58% 1.3 mph SSE2.1 kmh SSE 2.2 mph3.5 kmh 29.76 in1007.8 mb 0.00 in0.0 mm 0.00 in0.0 mm 0.00 in0.0 mm
03:54 PM 93.9°F34.4°C 76.4°F24.7°C 57% Calm Calm 2.2 mph3.5 kmh 29.76 in1007.8 mb 0.00 in0.0 mm 0.00 in0.0 mm 0.00 in0.0 mm
04:00 PM 93.7°F34.3°C 75.6°F24.2°C 56% Calm Calm -- 29.76 in1007.8 mb 0.00 in0.0 mm 0.00 in0.0 mm 0.00 in0.0 mm
04:06 PM 93.4°F34.1°C 74.7°F23.7°C 55% Calm Calm -- 29.75 in1007.5 mb 0.00 in0.0 mm 0.00 in0.0 mm 0.00 in0.0 mm
04:13 PM 93.0°F33.9°C 74.4°F23.6°C 55% Calm Calm -- 29.75 in1007.5 mb 0.00 in0.0 mm 0.00 in0.0 mm 0.00 in0.0 mm
04:17 PM 92.7°F33.7°C 74.0°F23.3°C 55% Calm Calm -- 29.75 in1007.5 mb 0.00 in0.0 mm 0.00 in0.0 mm 0.00 in0.0 mm
04:21 PM 92.5°F33.6°C 74.4°F23.6°C 56% Calm Calm -- 29.75 in1007.5 mb 0.00 in0.0 mm 0.00 in0.0 mm 0.00 in0.0 mm
04:28 PM 92.1°F33.4°C 74.1°F23.4°C 56% Calm Calm -- 29.75 in1007.5 mb 0.00 in0.0 mm 0.00 in0.0 mm 0.00 in0.0 mm
04:32 PM 91.9°F33.3°C 73.9°F23.3°C 56% Calm Calm -- 29.75 in1007.5 mb 0.00 in0.0 mm 0.00 in0.0 mm 0.00 in0.0 mm
04:36 PM 91.9°F33.3°C 73.9°F23.3°C 56% Calm Calm -- 29.76 in1007.8 mb 0.00 in0.0 mm 0.00 in0.0 mm 0.00 in0.0 mm
04:43 PM 91.8°F33.2°C 74.3°F23.5°C 57% Calm Calm -- 29.75 in1007.5 mb 0.00 in0.0 mm 0.00 in0.0 mm 0.00 in0.0 mm
04:47 PM 91.6°F33.1°C 74.1°F23.4°C 57% Calm Calm -- 29.75 in1007.5 mb 0.00 in0.0 mm 0.00 in0.0 mm 0.00 in0.0 mm
04:51 PM 91.6°F33.1°C 74.6°F23.7°C 58% Calm Calm -- 29.75 in1007.5 mb 0.00 in0.0 mm 0.00 in0.0 mm 0.00 in0.0 mm
04:58 PM 91.4°F33.0°C 74.5°F23.6°C 58% Calm Calm -- 29.76 in1007.8 mb 0.00 in0.0 mm 0.00 in0.0 mm 0.00 in0.0 mm
05:02 PM 91.2°F32.9°C 74.9°F23.8°C 59% Calm Calm -- 29.75 in1007.5 mb 0.00 in0.0 mm 0.00 in0.0 mm 0.00 in0.0 mm
05:06 PM 91.2°F32.9°C 75.4°F24.1°C 60% Calm Calm -- 29.75 in1007.5 mb 0.00 in0.0 mm 0.00 in0.0 mm 0.00 in0.0 mm
05:13 PM 91.0°F32.8°C 75.2°F24.0°C 60% Calm Calm -- 29.75 in1007.5 mb 0.00 in0.0 mm 0.00 in0.0 mm 0.00 in0.0 mm
05:17 PM 90.9°F32.7°C 75.1°F23.9°C 60% Calm Calm -- 29.75 in1007.5 mb 0.00 in0.0 mm 0.00 in0.0 mm 0.00 in0.0 mm
05:21 PM 90.7°F32.6°C 75.4°F24.1°C 61% Calm Calm -- 29.75 in1007.5 mb 0.00 in0.0 mm 0.00 in0.0 mm 0.00 in0.0 mm
05:28 PM 90.5°F32.5°C 75.4°F24.1°C 62% Calm Calm -- 29.75 in1007.5 mb 0.00 in0.0 mm 0.00 in0.0 mm 0.00 in0.0 mm
05:32 PM 90.3°F32.4°C 75.5°F24.2°C 62% Calm Calm -- 29.75 in1007.5 mb 0.00 in0.0 mm 0.00 in0.0 mm 0.00 in0.0 mm
05:36 PM 90.3°F32.4°C 75.5°F24.2°C 62% Calm Calm -- 29.75 in1007.5 mb 0.00 in0.0 mm 0.00 in0.0 mm 0.00 in0.0 mm
05:43 PM 90.1°F32.3°C 74.9°F23.8°C 61% Calm Calm -- 29.76 in1007.8 mb 0.00 in0.0 mm 0.00 in0.0 mm 0.00 in0.0 mm
05:49 PM 90.0°F32.2°C 74.7°F23.7°C 61% Calm Calm -- 29.76 in1007.8 mb 0.00 in0.0 mm 0.00 in0.0 mm 0.00 in0.0 mm
05:53 PM 89.8°F32.1°C 74.6°F23.7°C 61% Calm Calm -- 29.77 in1008.1 mb 0.00 in0.0 mm 0.00 in0.0 mm 0.00 in0.0 mm
05:58 PM 89.8°F32.1°C 75.0°F23.9°C 62% Calm Calm -- 29.77 in1008.1 mb 0.00 in0.0 mm 0.00 in0.0 mm 0.00 in0.0 mm
06:04 PM 89.8°F32.1°C 76.0°F24.4°C 64% Calm Calm -- 29.78 in1008.5 mb 0.00 in0.0 mm 0.00 in0.0 mm 0.00 in0.0 mm
06:08 PM 89.8°F32.1°C 76.0°F24.4°C 64% Calm Calm -- 29.78 in1008.5 mb 0.00 in0.0 mm 0.00 in0.0 mm 0.00 in0.0 mm
06:15 PM 89.6°F32.0°C 75.8°F24.3°C 64% Calm Calm -- 29.78 in1008.5 mb 0.00 in0.0 mm 0.00 in0.0 mm 0.00 in0.0 mm
06:19 PM 89.4°F31.9°C 75.6°F24.2°C 64% Calm Calm -- 29.78 in1008.5 mb 0.00 in0.0 mm 0.00 in0.0 mm 0.00 in0.0 mm
06:25 PM 89.4°F31.9°C 75.6°F24.2°C 64% Calm Calm -- 29.78 in1008.5 mb 0.00 in0.0 mm 0.00 in0.0 mm 0.00 in0.0 mm
06:30 PM 89.2°F31.8°C 75.9°F24.4°C 65% Calm Calm -- 29.78 in1008.5 mb 0.00 in0.0 mm 0.00 in0.0 mm 0.00 in0.0 mm
06:34 PM 89.2°F31.8°C 75.9°F24.4°C 65% Calm Calm -- 29.78 in1008.5 mb 0.00 in0.0 mm 0.00 in0.0 mm 0.00 in0.0 mm
06:40 PM 89.1°F31.7°C 75.3°F24.1°C 64% Calm Calm -- 29.79 in1008.8 mb 0.00 in0.0 mm 0.00 in0.0 mm 0.00 in0.0 mm
06:45 PM 88.9°F31.6°C 75.1°F23.9°C 64% Calm Calm -- 29.79 in1008.8 mb 0.00 in0.0 mm 0.00 in0.0 mm 0.00 in0.0 mm
06:49 PM 88.9°F31.6°C 75.1°F23.9°C 64% Calm Calm -- 29.79 in1008.8 mb 0.00 in0.0 mm 0.00 in0.0 mm 0.00 in0.0 mm
06:55 PM 88.7°F31.5°C 75.0°F23.9°C 64% Calm Calm -- 29.78 in1008.5 mb 0.00 in0.0 mm 0.00 in0.0 mm 0.00 in0.0 mm
07:00 PM 88.5°F31.4°C 75.3°F24.1°C 65% Calm Calm -- 29.79 in1008.8 mb 0.00 in0.0 mm 0.00 in0.0 mm 0.00 in0.0 mm
07:04 PM 88.3°F31.3°C 75.1°F23.9°C 65% 1.1 mph NNE1.8 kmh NNE 1.1 mph1.8 kmh 29.80 in1009.1 mb 0.00 in0.0 mm 0.00 in0.0 mm 0.00 in0.0 mm
07:11 PM 88.2°F31.2°C 74.9°F23.8°C 65% Calm Calm 1.1 mph1.8 kmh 29.80 in1009.1 mb 0.00 in0.0 mm 0.00 in0.0 mm 0.00 in0.0 mm
07:17 PM 88.0°F31.1°C 73.8°F23.2°C 63% 1.3 mph 2.1 kmh 1.3 mph2.1 kmh 29.80 in1009.1 mb 0.00 in0.0 mm 0.00 in0.0 mm 0.00 in0.0 mm
07:21 PM 87.6°F30.9°C 73.2°F22.9°C 62% 1.6 mph 2.6 kmh 1.6 mph2.6 kmh 29.80 in1009.1 mb 0.00 in0.0 mm 0.00 in0.0 mm 0.00 in0.0 mm
07:28 PM 87.6°F30.9°C 73.0°F22.8°C 62% Calm Calm 1.6 mph2.6 kmh 29.80 in1009.1 mb 0.00 in0.0 mm 0.00 in0.0 mm 0.00 in0.0 mm
07:32 PM 87.6°F30.9°C 73.0°F22.8°C 62% Calm Calm -- 29.80 in1009.1 mb 0.00 in0.0 mm 0.00 in0.0 mm 0.00 in0.0 mm
07:36 PM 87.6°F30.9°C 73.0°F22.8°C 62% Calm Calm 2.2 mph3.5 kmh 29.80 in1009.1 mb 0.00 in0.0 mm 0.00 in0.0 mm 0.00 in0.0 mm
07:43 PM 87.4°F30.8°C 72.9°F22.7°C 62% Calm Calm 2.2 mph3.5 kmh 29.80 in1009.1 mb 0.00 in0.0 mm 0.00 in0.0 mm 0.00 in0.0 mm
07:49 PM 87.4°F30.8°C 73.3°F22.9°C 63% Calm Calm -- 29.81 in1009.5 mb 0.00 in0.0 mm 0.00 in0.0 mm 0.00 in0.0 mm
07:53 PM 87.4°F30.8°C 73.3°F22.9°C 63% Calm Calm -- 29.81 in1009.5 mb 0.00 in0.0 mm 0.00 in0.0 mm 0.00 in0.0 mm
08:00 PM 87.1°F30.6°C 73.4°F23.0°C 64% Calm Calm -- 29.81 in1009.5 mb 0.00 in0.0 mm 0.00 in0.0 mm 0.00 in0.0 mm
08:04 PM 86.9°F30.5°C 73.7°F23.2°C 65% Calm Calm -- 29.81 in1009.5 mb 0.00 in0.0 mm 0.00 in0.0 mm 0.00 in0.0 mm
08:08 PM 86.7°F30.4°C 74.5°F23.6°C 67% Calm Calm -- 29.81 in1009.5 mb 0.00 in0.0 mm 0.00 in0.0 mm 0.00 in0.0 mm
08:15 PM 86.5°F30.3°C 74.8°F23.8°C 68% Calm Calm -- 29.81 in1009.5 mb 0.00 in0.0 mm 0.00 in0.0 mm 0.00 in0.0 mm
08:19 PM 86.4°F30.2°C 74.6°F23.7°C 68% Calm Calm -- 29.81 in1009.5 mb 0.00 in0.0 mm 0.00 in0.0 mm 0.00 in0.0 mm
08:23 PM 86.2°F30.1°C 74.4°F23.6°C 68% Calm Calm -- 29.82 in1009.8 mb 0.00 in0.0 mm 0.00 in0.0 mm 0.00 in0.0 mm
08:30 PM 85.6°F29.8°C 73.9°F23.3°C 68% Calm Calm -- 29.82 in1009.8 mb 0.00 in0.0 mm 0.00 in0.0 mm 0.00 in0.0 mm
08:34 PM 85.5°F29.7°C 74.2°F23.4°C 69% Calm Calm -- 29.83 in1010.2 mb 0.00 in0.0 mm 0.00 in0.0 mm 0.00 in0.0 mm
08:38 PM 85.3°F29.6°C 74.0°F23.3°C 69% Calm Calm 0.9 mph1.4 kmh 29.83 in1010.2 mb 0.00 in0.0 mm 0.00 in0.0 mm 0.00 in0.0 mm
08:45 PM 84.9°F29.4°C 74.1°F23.4°C 70% Calm Calm 0.9 mph1.4 kmh 29.83 in1010.2 mb 0.00 in0.0 mm 0.00 in0.0 mm 0.00 in0.0 mm
08:49 PM 84.7°F29.3°C 74.3°F23.5°C 71% Calm Calm -- 29.82 in1009.8 mb 0.00 in0.0 mm 0.00 in0.0 mm 0.00 in0.0 mm
08:55 PM 84.4°F29.1°C 74.0°F23.3°C 71% Calm Calm -- 29.83 in1010.2 mb 0.00 in0.0 mm 0.00 in0.0 mm 0.00 in0.0 mm
09:00 PM 84.4°F29.1°C 74.0°F23.3°C 71% Calm Calm -- 29.83 in1010.2 mb 0.00 in0.0 mm 0.00 in0.0 mm 0.00 in0.0 mm
09:04 PM 84.2°F29.0°C 74.2°F23.4°C 72% Calm Calm -- 29.83 in1010.2 mb 0.00 in0.0 mm 0.00 in0.0 mm 0.00 in0.0 mm
09:10 PM 84.0°F28.9°C 74.0°F23.3°C 72% Calm Calm -- 29.83 in1010.2 mb 0.00 in0.0 mm 0.00 in0.0 mm 0.00 in0.0 mm
09:15 PM 83.8°F28.8°C 74.2°F23.4°C 73% Calm Calm -- 29.84 in1010.5 mb 0.00 in0.0 mm 0.00 in0.0 mm 0.00 in0.0 mm
09:19 PM 83.7°F28.7°C 74.2°F23.4°C 73% Calm Calm -- 29.84 in1010.5 mb 0.00 in0.0 mm 0.00 in0.0 mm 0.00 in0.0 mm
09:25 PM 83.3°F28.5°C 73.9°F23.3°C 74% Calm Calm -- 29.84 in1010.5 mb 0.00 in0.0 mm 0.00 in0.0 mm 0.00 in0.0 mm
09:30 PM 83.1°F28.4°C 73.9°F23.3°C 74% Calm Calm -- 29.84 in1010.5 mb 0.00 in0.0 mm 0.00 in0.0 mm 0.00 in0.0 mm
09:34 PM 83.1°F28.4°C 73.9°F23.3°C 74% Calm Calm -- 29.84 in1010.5 mb 0.00 in0.0 mm 0.00 in0.0 mm 0.00 in0.0 mm
09:40 PM 82.9°F28.3°C 74.2°F23.4°C 75% Calm Calm -- 29.84 in1010.5 mb 0.00 in0.0 mm 0.00 in0.0 mm 0.00 in0.0 mm
09:45 PM 82.9°F28.3°C 74.2°F23.4°C 75% Calm Calm -- 29.84 in1010.5 mb 0.00 in0.0 mm 0.00 in0.0 mm 0.00 in0.0 mm
09:51 PM 82.9°F28.3°C 73.8°F23.2°C 74% Calm Calm -- 29.84 in1010.5 mb 0.00 in0.0 mm 0.00 in0.0 mm 0.00 in0.0 mm
09:55 PM 82.9°F28.3°C 73.8°F23.2°C 74% Calm Calm -- 29.84 in1010.5 mb 0.00 in0.0 mm 0.00 in0.0 mm 0.00 in0.0 mm
10:00 PM 82.9°F28.3°C 73.8°F23.2°C 74% Calm Calm -- 29.84 in1010.5 mb 0.00 in0.0 mm 0.00 in0.0 mm 0.00 in0.0 mm
10:06 PM 82.9°F28.3°C 74.2°F23.4°C 75% Calm Calm -- 29.85 in1010.8 mb 0.00 in0.0 mm 0.00 in0.0 mm 0.00 in0.0 mm
10:13 PM 82.8°F28.2°C 73.6°F23.1°C 74% Calm Calm -- 29.85 in1010.8 mb 0.00 in0.0 mm 0.00 in0.0 mm 0.00 in0.0 mm
10:17 PM 82.9°F28.3°C 73.8°F23.2°C 74% Calm Calm -- 29.85 in1010.8 mb 0.00 in0.0 mm 0.00 in0.0 mm 0.00 in0.0 mm
10:23 PM 82.9°F28.3°C 73.8°F23.2°C 74% Calm Calm -- 29.84 in1010.5 mb 0.00 in0.0 mm 0.00 in0.0 mm 0.00 in0.0 mm
10:27 PM 82.9°F28.3°C 73.8°F23.2°C 74% Calm Calm -- 29.85 in1010.8 mb 0.00 in0.0 mm 0.00 in0.0 mm 0.00 in0.0 mm
10:34 PM 82.9°F28.3°C 73.4°F23.0°C 73% Calm Calm -- 29.85 in1010.8 mb 0.00 in0.0 mm 0.00 in0.0 mm 0.00 in0.0 mm
10:40 PM 82.9°F28.3°C 73.8°F23.2°C 74% Calm Calm -- 29.85 in1010.8 mb 0.00 in0.0 mm 0.00 in0.0 mm 0.00 in0.0 mm
10:45 PM 82.9°F28.3°C 73.8°F23.2°C 74% Calm Calm -- 29.86 in1011.2 mb 0.00 in0.0 mm 0.00 in0.0 mm 0.00 in0.0 mm
10:49 PM 82.9°F28.3°C 73.8°F23.2°C 74% Calm Calm -- 29.86 in1011.2 mb 0.00 in0.0 mm 0.00 in0.0 mm 0.00 in0.0 mm
10:55 PM 82.9°F28.3°C 73.8°F23.2°C 74% Calm Calm -- 29.86 in1011.2 mb 0.00 in0.0 mm 0.00 in0.0 mm 0.00 in0.0 mm
11:00 PM 82.9°F28.3°C 73.8°F23.2°C 74% Calm Calm -- 29.86 in1011.2 mb 0.00 in0.0 mm 0.00 in0.0 mm 0.00 in0.0 mm
11:04 PM 82.9°F28.3°C 73.8°F23.2°C 74% 1.1 mph NNE1.8 kmh NNE 1.1 mph1.8 kmh 29.86 in1011.2 mb 0.00 in0.0 mm 0.00 in0.0 mm 0.00 in0.0 mm
11:10 PM 82.8°F28.2°C 74.0°F23.3°C 75% Calm Calm 1.1 mph1.8 kmh 29.86 in1011.2 mb 0.00 in0.0 mm 0.00 in0.0 mm 0.00 in0.0 mm
11:15 PM 82.6°F28.1°C 73.8°F23.2°C 75% Calm Calm -- 29.86 in1011.2 mb 0.00 in0.0 mm 0.00 in0.0 mm 0.00 in0.0 mm
11:19 PM 82.6°F28.1°C 73.8°F23.2°C 75% Calm Calm -- 29.86 in1011.2 mb 0.00 in0.0 mm 0.00 in0.0 mm 0.00 in0.0 mm
11:25 PM 82.6°F28.1°C 73.8°F23.2°C 75% Calm Calm -- 29.85 in1010.8 mb 0.00 in0.0 mm 0.00 in0.0 mm 0.00 in0.0 mm
11:32 PM 82.2°F27.9°C 73.5°F23.1°C 75% Calm Calm -- 29.85 in1010.8 mb 0.00 in0.0 mm 0.00 in0.0 mm 0.00 in0.0 mm
11:36 PM 82.2°F27.9°C 73.9°F23.3°C 76% Calm Calm -- 29.86 in1011.2 mb 0.00 in0.0 mm 0.00 in0.0 mm 0.00 in0.0 mm
11:40 PM 82.0°F27.8°C 73.7°F23.2°C 76% Calm Calm -- 29.86 in1011.2 mb 0.00 in0.0 mm 0.00 in0.0 mm 0.00 in0.0 mm
11:47 PM 82.0°F27.8°C 74.1°F23.4°C 77% Calm Calm -- 29.86 in1011.2 mb 0.00 in0.0 mm 0.00 in0.0 mm 0.00 in0.0 mm
11:51 PM 81.7°F27.6°C 73.8°F23.2°C 77% Calm Calm -- 29.86 in1011.2 mb 0.00 in0.0 mm 0.00 in0.0 mm 0.00 in0.0 mm
11:55 PM 81.7°F27.6°C 74.2°F23.4°C 78% Calm Calm -- 29.86 in1011.2 mb 0.00 in0.0 mm 0.00 in0.0 mm 0.00 in0.0 mm